createdAt,value
2023-02-15T00:02:44.287Z,-10873.84
2023-02-15T00:05:50.931Z,-10873.84
2023-02-15T00:08:57.633Z,-10869.09
2023-02-15T00:12:04.405Z,-10874.13
2023-02-15T00:15:10.782Z,-10866.28
2023-02-15T00:18:18.813Z,-10868.25
2023-02-15T00:21:25.335Z,-10869.66
2023-02-15T00:24:31.640Z,-10875.53
2023-02-15T00:27:38.353Z,-10880.28
2023-02-15T00:30:45.331Z,-10876.63
2023-02-15T00:33:53.204Z,-10876.63
2023-02-15T00:36:59.676Z,-10875.94
2023-02-15T00:40:07.518Z,-10874.97
2023-02-15T00:43:14.024Z,-10881.13
2023-02-15T00:46:20.037Z,-10879.31
2023-02-15T00:49:27.820Z,-10876.78
2023-02-15T00:52:34.164Z,-10878.03
2023-02-15T00:55:41.394Z,-10875.81
2023-02-15T00:58:48.104Z,-10882.25
2023-02-15T01:01:54.595Z,-10880.00
2023-02-15T01:05:02.577Z,-10876.22
2023-02-15T01:08:09.390Z,-10868.25
2023-02-15T01:11:23.016Z,-10863.78
2023-02-15T01:14:29.479Z,-10861.66
2023-02-15T01:17:35.708Z,-10868.94
2023-02-15T01:20:43.296Z,-10863.22
2023-02-15T01:23:49.693Z,-10866.72
2023-02-15T01:26:56.068Z,-10862.66
2023-02-15T01:30:02.341Z,-10871.03
2023-02-15T01:33:08.670Z,-10862.94
2023-02-15T01:36:18.484Z,-10867.97
2023-02-15T01:39:25.071Z,-10864.88
2023-02-15T01:42:33.162Z,-10867.41
2023-02-15T01:45:39.917Z,-10862.50
2023-02-15T01:48:48.874Z,-10865.44
2023-02-15T01:51:56.693Z,-10858.72
2023-02-15T01:55:03.602Z,-10857.91
2023-02-15T01:58:10.253Z,-10859.28
2023-02-15T02:01:16.791Z,-10858.72
2023-02-15T02:04:31.451Z,-10862.38
2023-02-15T02:07:42.825Z,-10858.88
2023-02-15T02:10:49.196Z,-10856.50
2023-02-15T02:13:57.425Z,-10856.22
2023-02-15T02:17:12.089Z,-10854.53
2023-02-15T02:20:59.495Z,-10857.06
2023-02-15T02:24:33.685Z,-10859.84
2023-02-15T02:27:43.689Z,-10841.09
2023-02-15T02:31:23.212Z,-10826.28
2023-02-15T02:34:36.473Z,-10830.22
2023-02-15T02:37:52.857Z,-10816.09
2023-02-15T02:41:10.806Z,-10827.28
2023-02-15T02:44:21.596Z,-10842.94
2023-02-15T02:47:33.132Z,-10842.38
2023-02-15T02:50:42.108Z,-10842.66
2023-02-15T02:53:48.598Z,-10846.44
2023-02-15T02:56:57.052Z,-10848.25
2023-02-15T03:00:06.628Z,-10843.06
2023-02-15T03:03:16.926Z,-10839.16
2023-02-15T03:06:30.731Z,-10847.69
2023-02-15T03:09:45.456Z,-10848.94
2023-02-15T03:12:53.355Z,-10840.69
2023-02-15T03:16:18.381Z,-10847.53
2023-02-15T03:19:29.938Z,-10840.13
2023-02-15T03:22:40.800Z,-10834.41
2023-02-15T03:25:53.757Z,-10838.19
2023-02-15T03:29:03.000Z,-10833.00
2023-02-15T03:32:13.428Z,-10842.09
2023-02-15T03:35:23.692Z,-10829.78
2023-02-15T03:38:38.823Z,-10841.94
2023-02-15T03:41:52.263Z,-10839.16
2023-02-15T03:45:02.013Z,-10839.28
2023-02-15T03:48:09.437Z,-10832.72
2023-02-15T03:51:39.207Z,-10833.84
2023-02-15T03:54:48.191Z,-10831.19
2023-02-15T03:58:12.104Z,-10826.84
2023-02-15T04:01:45.685Z,-10836.09
2023-02-15T04:04:52.305Z,-10804.22
2023-02-15T04:07:58.735Z,-10807.28
2023-02-15T04:11:05.389Z,-10812.16
2023-02-15T04:14:25.308Z,-10801.13
2023-02-15T04:17:31.898Z,-10796.94
2023-02-15T04:20:55.786Z,-10800.84
2023-02-15T04:24:19.879Z,-10801.00
2023-02-15T04:27:27.677Z,-10810.91
2023-02-15T04:30:34.094Z,-10794.97
2023-02-15T04:33:40.323Z,-10805.59
2023-02-15T04:36:46.617Z,-10810.22
2023-02-15T04:39:52.854Z,-10819.72
2023-02-15T04:43:00.747Z,-10826.28
2023-02-15T04:46:07.456Z,-10821.13
2023-02-15T04:49:13.966Z,-10814.28
2023-02-15T04:52:20.015Z,-10811.75
2023-02-15T04:55:27.819Z,-10802.53
2023-02-15T04:58:36.213Z,-10807.84
2023-02-15T05:01:42.636Z,-10803.50
2023-02-15T05:04:48.917Z,-10820.28
2023-02-15T05:07:55.430Z,-10813.16
2023-02-15T05:11:02.062Z,-10806.03
2023-02-15T05:14:10.035Z,-10806.31
2023-02-15T05:17:16.395Z,-10814.69
2023-02-15T05:20:22.661Z,-10806.31
2023-02-15T05:23:29.334Z,-10798.34
2023-02-15T05:26:53.226Z,-10807.56
2023-02-15T05:30:01.372Z,-10807.97
2023-02-15T05:33:08.342Z,-10805.59
2023-02-15T05:36:14.928Z,-10774.72
2023-02-15T05:39:21.476Z,-10765.66
2023-02-15T05:42:27.854Z,-10761.75
2023-02-15T05:45:35.786Z,-10784.09
2023-02-15T05:48:42.281Z,-10792.47
2023-02-15T05:51:48.477Z,-10794.84
2023-02-15T05:54:55.265Z,-10809.25
2023-02-15T05:58:01.607Z,-10822.53
2023-02-15T06:01:15.789Z,-10830.63
2023-02-15T06:04:22.227Z,-10832.44
2023-02-15T06:07:28.813Z,-10833.28
2023-02-15T06:10:34.999Z,-10830.47
2023-02-15T06:13:41.126Z,-10833.28
2023-02-15T06:16:48.769Z,-10844.59
2023-02-15T06:19:55.145Z,-10852.03
2023-02-15T06:23:01.193Z,-10862.09
2023-02-15T06:26:07.171Z,-10864.59
2023-02-15T06:29:13.470Z,-10853.41
2023-02-15T06:32:21.067Z,-10860.41
2023-02-15T06:35:27.754Z,-10867.69
2023-02-15T06:38:34.127Z,-10865.72
2023-02-15T06:41:41.422Z,-10876.50
2023-02-15T06:44:47.898Z,-10869.94
2023-02-15T06:47:55.543Z,-10867.97
2023-02-15T06:51:01.658Z,-10857.75
2023-02-15T06:54:08.192Z,-10874.25
2023-02-15T06:57:15.012Z,-10874.97
2023-02-15T07:00:23.329Z,-10884.91
2023-02-15T07:03:31.241Z,-10886.16
2023-02-15T07:06:37.828Z,-10889.22
2023-02-15T07:09:44.176Z,-10899.59
2023-02-15T07:12:50.383Z,-10899.59
2023-02-15T07:15:56.398Z,-10898.19
2023-02-15T07:19:04.096Z,-10911.63
2023-02-15T07:22:10.690Z,-10920.88
2023-02-15T07:25:17.224Z,-10929.28
2023-02-15T07:28:23.195Z,-10929.28
2023-02-15T07:31:29.486Z,-10941.88
2023-02-15T07:34:37.014Z,-10938.25
2023-02-15T07:37:43.146Z,-10947.06
2023-02-15T07:40:49.732Z,-10950.56
2023-02-15T07:43:56.118Z,-10958.28
2023-02-15T07:47:02.449Z,-10960.78
2023-02-15T07:50:11.163Z,-10971.88
2023-02-15T07:53:17.542Z,-10973.00
2023-02-15T07:56:23.912Z,-10980.84
2023-02-15T07:59:29.976Z,-10972.44
2023-02-15T08:02:38.187Z,-10984.63
2023-02-15T08:05:47.214Z,-10991.06
2023-02-15T08:08:54.173Z,-10985.03
2023-02-15T08:12:00.375Z,-10988.53
2023-02-15T08:15:07.320Z,-10987.97
2023-02-15T08:18:13.967Z,-10988.13
2023-02-15T08:21:24.541Z,-10981.81
2023-02-15T08:24:33.386Z,-10999.63
2023-02-15T08:27:39.871Z,-11006.50
2023-02-15T08:30:46.358Z,-10994.84
2023-02-15T08:33:54.331Z,-11005.78
2023-02-15T08:37:02.357Z,-10999.06
2023-02-15T08:40:09.974Z,-11013.78
2023-02-15T08:43:16.200Z,-11002.72
2023-02-15T08:46:24.415Z,-11009.84
2023-02-15T08:49:30.934Z,-11029.50
2023-02-15T08:52:38.905Z,-11041.84
2023-02-15T08:55:44.887Z,-11038.88
2023-02-15T08:58:51.299Z,-11035.66
2023-02-15T09:01:58.105Z,-11039.16
2023-02-15T09:05:04.953Z,-11029.06
2023-02-15T09:08:12.309Z,-11045.34
2023-02-15T09:11:25.056Z,-11038.34
2023-02-15T09:14:31.558Z,-11047.03
2023-02-15T09:17:37.755Z,-11056.84
2023-02-15T09:20:43.835Z,-11052.91
2023-02-15T09:23:52.669Z,-11069.91
2023-02-15T09:26:58.789Z,-11084.22
2023-02-15T09:30:05.222Z,-11077.63
2023-02-15T09:33:11.632Z,-11073.69
2023-02-15T09:36:19.841Z,-11078.75
2023-02-15T09:39:29.159Z,-11082.13
2023-02-15T09:42:58.862Z,-11090.81
2023-02-15T09:46:20.939Z,-11087.72
2023-02-15T09:49:40.497Z,-11087.16
2023-02-15T09:53:08.049Z,-11110.91
2023-02-15T09:56:25.275Z,-11089.28
2023-02-15T09:59:44.374Z,-11126.22
2023-02-15T10:03:06.946Z,-11104.88
2023-02-15T10:06:34.091Z,-11095.16
2023-02-15T10:09:53.848Z,-11108.78
2023-02-15T10:13:15.513Z,-11119.47
2023-02-15T10:16:30.805Z,-11120.59
2023-02-15T10:19:45.651Z,-11107.41
2023-02-15T10:23:10.781Z,-11120.31
2023-02-15T10:26:21.204Z,-11128.19
2023-02-15T10:29:34.261Z,-11131.25
2023-02-15T10:32:50.972Z,-11154.88
2023-02-15T10:36:08.880Z,-11161.91
2023-02-15T10:39:22.353Z,-11171.88
2023-02-15T10:42:37.939Z,-11148.97
2023-02-15T10:45:55.559Z,-11134.34
2023-02-15T10:49:21.679Z,-11139.97
2023-02-15T10:52:35.774Z,-11157.41
2023-02-15T10:55:53.634Z,-11169.78
2023-02-15T10:59:22.126Z,-11161.06
2023-02-15T11:02:42.651Z,-11165.41
2023-02-15T11:06:00.411Z,-11141.66
2023-02-15T11:09:12.800Z,-11167.53
2023-02-15T11:12:24.788Z,-11152.47
2023-02-15T11:15:35.681Z,-11153.31
2023-02-15T11:18:49.011Z,-11157.69
2023-02-15T11:22:00.342Z,-11152.47
2023-02-15T11:25:19.736Z,-11157.97
2023-02-15T11:28:32.124Z,-11159.66
2023-02-15T11:31:46.174Z,-11151.91
2023-02-15T11:34:58.246Z,-11165.00
2023-02-15T11:38:12.370Z,-11177.34
2023-02-15T11:41:25.351Z,-11194.22
2023-02-15T11:44:37.295Z,-11176.50
2023-02-15T11:47:43.492Z,-11190.28
2023-02-15T11:50:50.892Z,-11175.53
2023-02-15T11:53:58.009Z,-11175.09
2023-02-15T11:57:16.888Z,-11170.34
2023-02-15T12:00:37.076Z,-11169.78
2023-02-15T12:03:49.199Z,-11189.16
2023-02-15T12:07:02.736Z,-11192.25
2023-02-15T12:10:21.661Z,-11179.31
2023-02-15T12:13:28.030Z,-11184.66
2023-02-15T12:16:43.348Z,-11200.69
2023-02-15T12:19:53.610Z,-11187.75
2023-02-15T12:23:06.142Z,-11185.50
2023-02-15T12:26:13.444Z,-11197.19
2023-02-15T12:29:23.997Z,-11196.06
2023-02-15T12:32:33.133Z,-11197.31
2023-02-15T12:35:39.275Z,-11184.66
2023-02-15T12:39:05.226Z,-11192.13
2023-02-15T12:42:20.454Z,-11206.31
2023-02-15T12:45:30.226Z,-11184.25
2023-02-15T12:48:40.787Z,-11185.22
2023-02-15T12:51:50.449Z,-11197.59
2023-02-15T12:55:12.046Z,-11195.78
2023-02-15T12:58:19.822Z,-11208.84
2023-02-15T13:01:27.820Z,-11214.19
2023-02-15T13:04:34.653Z,-11192.13
2023-02-15T13:07:40.645Z,-11206.59
2023-02-15T13:10:58.359Z,-11213.22
2023-02-15T13:14:06.140Z,-11214.75
2023-02-15T13:17:14.485Z,-11221.50
2023-02-15T13:20:23.960Z,-11207.16
2023-02-15T13:23:33.278Z,-11225.72
2023-02-15T13:26:45.833Z,-11218.28
2023-02-15T13:29:55.005Z,-11215.03
2023-02-15T13:33:05.186Z,-11219.25
2023-02-15T13:36:19.172Z,-11223.62
2023-02-15T13:39:31.425Z,-11234.88
2023-02-15T13:42:42.685Z,-11236.16
2023-02-15T13:46:03.737Z,-11219.53
2023-02-15T13:49:21.243Z,-11230.78
2023-02-15T13:52:30.981Z,-11223.34
2023-02-15T13:55:48.096Z,-11219.25
2023-02-15T13:59:22.213Z,-11240.34
2023-02-15T14:02:54.701Z,-11225.44
2023-02-15T14:06:21.753Z,-11191.69
2023-02-15T14:09:42.859Z,-11231.34
2023-02-15T14:13:03.887Z,-11223.06
2023-02-15T14:16:19.698Z,-11204.22
2023-02-15T14:19:33.519Z,-11215.47
2023-02-15T14:22:44.210Z,-11185.94
2023-02-15T14:25:57.524Z,-11189.44
2023-02-15T14:29:16.222Z,-11173.44
2023-02-15T14:32:32.393Z,-11159.94
2023-02-15T14:35:39.530Z,-11162.19
2023-02-15T14:38:58.111Z,-11156.28
2023-02-15T14:42:10.508Z,-11145.03
2023-02-15T14:45:21.642Z,-11145.88
2023-02-15T14:48:33.704Z,-11138.84
2023-02-15T14:52:01.108Z,-11133.50
2023-02-15T14:55:09.454Z,-11127.63
2023-02-15T14:58:16.131Z,-11131.81
2023-02-15T15:01:29.064Z,-11127.34
2023-02-15T15:04:40.375Z,-11129.72
2023-02-15T15:07:49.326Z,-11128.03
2023-02-15T15:10:56.703Z,-11118.63
2023-02-15T15:14:03.472Z,-11111.19
2023-02-15T15:17:13.905Z,-11106.00
2023-02-15T15:20:42.977Z,-11100.94
2023-02-15T15:23:49.869Z,-11105.16
2023-02-15T15:27:46.240Z,-11100.50
2023-02-15T15:30:53.264Z,-11088.00
2023-02-15T15:34:35.286Z,-11090.53
2023-02-15T15:38:01.657Z,-11094.75
2023-02-15T15:41:21.107Z,-11091.66
2023-02-15T15:45:05.585Z,-11092.50
2023-02-15T15:48:31.905Z,-11086.31
2023-02-15T15:51:43.794Z,-11086.59
2023-02-15T15:54:57.068Z,-11088.84
2023-02-15T15:58:06.550Z,-11080.44
2023-02-15T16:01:14.889Z,-11082.69
2023-02-15T16:04:27.465Z,-11072.28
2023-02-15T16:07:34.119Z,-11061.06
2023-02-15T16:10:43.151Z,-11071.88
2023-02-15T16:13:49.807Z,-11051.78
2023-02-15T16:16:59.499Z,-11057.69
2023-02-15T16:20:13.793Z,-11045.34
2023-02-15T16:23:49.912Z,-11043.09
2023-02-15T16:27:14.040Z,-11043.53
2023-02-15T16:30:24.561Z,-11029.34
2023-02-15T16:33:38.640Z,-11034.97
2023-02-15T16:36:44.878Z,-11027.09
2023-02-15T16:39:52.451Z,-11022.06
2023-02-15T16:43:04.171Z,-11026.13
2023-02-15T16:46:14.618Z,-11017.16
2023-02-15T16:49:23.353Z,-11016.31
2023-02-15T16:52:31.390Z,-11013.66
2023-02-15T16:55:42.236Z,-11009.16
2023-02-15T16:58:53.114Z,-11007.63
2023-02-15T17:02:00.285Z,-11004.38
2023-02-15T17:05:24.918Z,-11001.72
2023-02-15T17:08:33.437Z,-11001.03
2023-02-15T17:11:43.650Z,-10991.50
2023-02-15T17:14:57.118Z,-10997.66
2023-02-15T17:18:07.119Z,-10987.56
2023-02-15T17:21:16.317Z,-10990.09
2023-02-15T17:24:33.895Z,-10980.56
2023-02-15T17:27:40.598Z,-10989.09
2023-02-15T17:30:49.724Z,-10978.59
2023-02-15T17:33:56.973Z,-10983.34
2023-02-15T17:37:03.505Z,-10975.22
2023-02-15T17:40:21.074Z,-10978.88
2023-02-15T17:43:27.467Z,-10977.75
2023-02-15T17:46:39.174Z,-10977.75
2023-02-15T17:49:46.608Z,-10969.91
2023-02-15T17:52:53.395Z,-10973.97
2023-02-15T17:56:00.070Z,-10972.84
2023-02-15T17:59:07.759Z,-10972.44
2023-02-15T18:02:33.065Z,-10972.28
2023-02-15T18:05:57.076Z,-10967.38
2023-02-15T18:09:21.270Z,-10966.81
2023-02-15T18:12:29.807Z,-10970.47
2023-02-15T18:15:36.648Z,-10966.81
2023-02-15T18:18:46.229Z,-10962.34
2023-02-15T18:21:55.788Z,-10962.63
2023-02-15T18:25:02.388Z,-10959.69
2023-02-15T18:28:09.647Z,-10966.53
2023-02-15T18:31:16.882Z,-10962.06
2023-02-15T18:34:29.261Z,-10956.44
2023-02-15T18:37:35.588Z,-10961.78
2023-02-15T18:40:42.186Z,-10953.09
2023-02-15T18:43:51.159Z,-10947.06
2023-02-15T18:46:57.558Z,-10941.31
2023-02-15T18:50:05.368Z,-10936.56
2023-02-15T18:53:18.282Z,-10934.31
2023-02-15T18:56:24.749Z,-10948.06
2023-02-15T18:59:32.588Z,-10939.09
2023-02-15T19:02:39.181Z,-10941.75
2023-02-15T19:05:48.402Z,-10940.47
2023-02-15T19:08:55.003Z,-10931.66
2023-02-15T19:12:01.477Z,-10929.97
2023-02-15T19:15:09.719Z,-10927.75
2023-02-15T19:18:17.047Z,-10935.28
2023-02-15T19:21:25.548Z,-10933.47
2023-02-15T19:24:39.717Z,-10928.28
2023-02-15T19:27:47.195Z,-10926.06
2023-02-15T19:30:53.731Z,-10914.72
2023-02-15T19:33:59.871Z,-10917.25
2023-02-15T19:37:13.119Z,-10915.13
2023-02-15T19:40:22.775Z,-10919.34
2023-02-15T19:43:30.301Z,-10915.13
2023-02-15T19:46:37.524Z,-10920.88
2023-02-15T19:49:43.772Z,-10926.63
2023-02-15T19:52:51.777Z,-10930.25
2023-02-15T19:55:58.252Z,-10927.88
2023-02-15T19:59:04.625Z,-10928.72
2023-02-15T20:02:14.828Z,-10927.88
2023-02-15T20:05:21.462Z,-10920.88
2023-02-15T20:08:30.771Z,-10924.22
2023-02-15T20:11:36.864Z,-10926.19
2023-02-15T20:14:43.433Z,-10922.69
2023-02-15T20:17:50.130Z,-10921.44
2023-02-15T20:20:56.797Z,-10920.03
2023-02-15T20:24:05.557Z,-10919.19
2023-02-15T20:27:17.185Z,-10920.72
2023-02-15T20:30:26.306Z,-10919.19
2023-02-15T20:33:32.563Z,-10916.69
2023-02-15T20:36:40.117Z,-10916.53
2023-02-15T20:39:47.877Z,-10918.63
2023-02-15T20:42:54.512Z,-10911.63
2023-02-15T20:46:01.089Z,-10912.06
2023-02-15T20:49:07.703Z,-10912.47
2023-02-15T20:52:20.765Z,-10881.13
2023-02-15T20:55:30.367Z,-10873.28
2023-02-15T20:58:38.722Z,-10890.63
2023-02-15T21:01:46.358Z,-10884.91
2023-02-15T21:04:53.299Z,-10881.97
2023-02-15T21:07:59.858Z,-10881.69
2023-02-15T21:11:19.416Z,-10896.66
2023-02-15T21:14:28.302Z,-10897.63
2023-02-15T21:17:34.598Z,-10897.50
2023-02-15T21:20:45.409Z,-10897.91
2023-02-15T21:23:53.867Z,-10896.22
2023-02-15T21:27:03.961Z,-10887.28
2023-02-15T21:30:16.317Z,-10883.78
2023-02-15T21:33:22.863Z,-10878.31
2023-02-15T21:36:29.465Z,-10886.16
2023-02-15T21:39:37.858Z,-10889.50
2023-02-15T21:43:03.136Z,-10896.38
2023-02-15T21:46:32.249Z,-10897.91
2023-02-15T21:49:38.848Z,-10895.97
2023-02-15T21:52:44.928Z,-10893.72
2023-02-15T21:55:58.822Z,-10897.63
2023-02-15T21:59:11.425Z,-10893.84
2023-02-15T22:02:28.886Z,-10892.19
2023-02-15T22:05:35.308Z,-10893.44
2023-02-15T22:08:41.776Z,-10870.06
2023-02-15T22:11:48.892Z,-10879.72
2023-02-15T22:14:56.881Z,-10867.13
2023-02-15T22:18:03.722Z,-10866.28
2023-02-15T22:21:12.104Z,-10868.81
2023-02-15T22:24:18.645Z,-10863.78
2023-02-15T22:27:27.818Z,-10874.53
2023-02-15T22:30:38.217Z,-10879.03
2023-02-15T22:33:45.840Z,-10875.53
2023-02-15T22:36:52.218Z,-10876.63
2023-02-15T22:39:58.410Z,-10883.91
2023-02-15T22:43:06.952Z,-10880.00
2023-02-15T22:46:20.193Z,-10883.50
2023-02-15T22:49:26.327Z,-10873.41
2023-02-15T22:52:32.599Z,-10858.03
2023-02-15T22:55:39.880Z,-10866.00
2023-02-15T22:58:48.433Z,-10871.31
2023-02-15T23:01:56.719Z,-10872.03
2023-02-15T23:05:02.760Z,-10869.22
2023-02-15T23:08:10.110Z,-10878.31
2023-02-15T23:11:16.501Z,-10872.88
2023-02-15T23:14:27.597Z,-10868.38
2023-02-15T23:17:34.920Z,-10874.69
2023-02-15T23:20:41.169Z,-10870.75
2023-02-15T23:23:50.211Z,-10842.09
2023-02-15T23:27:16.334Z,-10842.66
2023-02-15T23:30:23.287Z,-10855.38
2023-02-15T23:33:34.190Z,-10857.91
2023-02-15T23:36:41.224Z,-10861.25
2023-02-15T23:40:05.064Z,-10864.88
2023-02-15T23:43:21.142Z,-10859.56
2023-02-15T23:46:30.276Z,-10854.53
2023-02-15T23:49:38.138Z,-10863.06
2023-02-15T23:52:44.270Z,-10864.75
2023-02-15T23:55:50.682Z,-10863.22
2023-02-15T23:58:56.718Z,-10827.81
